LGAL/AXD METAR and TAF weather

Enter ICAO airport designator
Station Type Date Time Source
LGAL METAR 2019/12/07 07:20 UTC NOAA

LGAL 070720Z 00000KT 9999 FEW030 03/M02 Q1020


Station Type Date Time Source
LGAL Decoded METAR 2019/12/07 07:20 UTC NOAA

Alexandroupoli Airport , Greece (LGAL) 40-51N 025-55E 3M
Dec 07, 2019 - 02:20 AM EST / 2019.12.07 0720 UTC
Wind: Calm:0
Visibility: greater than 7 mile(s):0
Sky conditions: mostly clear
Temperature: 37 F (3 C)
Dew Point: 28 F (-2 C)
Relative Humidity: 69%
Pressure (altimeter): 30.12 in. Hg (1020 hPa)
ob: LGAL 070720Z 00000KT 9999 FEW030 03/M02 Q1020
cycle: 7

Station Type Date Time Source
LGAL TAF 2012/09/21 03:06 UTC NOAA

TAF TAF LGAL 210200Z 2103/2115 03012G22KT 9999 FEW020 SCT070 PROB30
TEMPO 2103/2106 6000 RA SCT015 BKN030 PROB30

Example: see airport list